Latest Weather Observations for Hogan Island

IDV60801

Issued at 10:32 pm EDT Saturday 23 February 2019 (issued every 10 minutes, with the page automatically refreshed every 10 minutes)

About weather observations | Map of weather stations | Latest weather observations for VIC | Other Formats
Station Details ID: 200838 Name: HOGAN ISLAND Lat: -39.22 Lon: 146.98 Height: 116.0 m
Data from the previous 72 hours. | See also: Recent months at Hogan Island
Date/Time
EDT
Temp
°C
App
Temp
°C
Dew
Point
°C
Rel
Hum
%
Delta-T
°C
Wind Press
QNH
hPa
Press
MSL
hPa
Rain since
9am
mm
Dir  Spd
km/h
Gust
km/h
Spd
kts
Gust
kts
23/10:30pm 15.3 6.7 11.5 78 2.0 E 48 57 26 31 1029.3 - 0.0
23/10:00pm 15.4 6.9 12.0 80 1.9 E 48 57 26 31 1029.1 - 0.0
23/09:30pm 15.4 7.3 12.0 80 1.9 E 46 56 25 30 1029.0 - 0.0
23/09:00pm 15.5 7.7 11.9 79 2.0 E 44 54 24 29 1028.5 1028.3 0.0
23/08:30pm 15.8 7.2 11.8 77 2.2 E 48 56 26 30 1028.2 - 0.0
23/08:00pm 15.7 6.8 10.7 72 2.7 E 48 56 26 30 1027.9 - 0.0
23/07:30pm 16.1 7.4 11.3 73 2.6 E 48 56 26 30 1027.7 - 0.0
23/07:00pm 16.4 7.8 11.6 73 2.6 E 48 57 26 31 1027.4 - 0.0
23/06:30pm 17.0 8.3 12.7 76 2.4 E 50 59 27 32 1027.2 - 0.0
23/06:00pm 17.6 9.1 13.3 76 2.4 E 50 57 27 31 1027.1 1026.9 0.0
23/05:30pm 17.9 9.5 13.6 76 2.5 E 50 57 27 31 1027.0 - 0.0
23/05:00pm 19.2 11.9 14.5 74 2.7 E 46 54 25 29 1027.2 - 0.0
23/04:30pm 19.3 11.4 14.8 75 2.6 E 50 57 27 31 1027.0 - 0.0
23/04:00pm 19.5 12.0 15.0 75 2.6 E 48 56 26 30 1026.8 - 0.0
23/03:30pm 19.6 12.8 14.8 74 2.8 E 44 54 24 29 1026.8 - 0.0
23/03:00pm 20.6 15.5 14.7 69 3.5 E 35 43 19 23 1026.8 1026.6 0.0
23/02:30pm 20.8 18.0 15.4 71 3.2 ESE 24 28 13 15 1027.1 - 0.0
23/02:00pm 20.5 18.3 14.8 70 3.4 E 20 26 11 14 1027.3 - 0.0
23/01:30pm 20.1 18.3 14.5 70 3.3 E 17 24 9 13 1027.2 - 0.0
23/01:00pm 19.7 18.2 14.1 70 3.2 ENE 15 20 8 11 1027.4 - 0.0
23/12:30pm 19.5 18.0 14.1 71 3.1 E 15 20 8 11 1027.4 - 0.0
23/12:00pm 19.7 18.5 14.1 70 3.2 E 13 19 7 10 1027.3 1027.1 0.0
23/11:30am 19.1 18.1 13.5 70 3.2 E 11 17 6 9 1027.2 - 0.0
23/11:00am 19.1 18.3 13.9 72 3.0 SSE 11 15 6 8 1027.1 - 0.0
23/10:30am 18.3 17.0 13.6 74 2.7 S 13 17 7 9 1027.0 - 0.0
23/10:00am 18.7 18.0 14.2 75 2.6 SW 11 15 6 8 1026.6 - 0.0
23/09:30am 17.0 15.2 13.3 79 2.1 WSW 15 19 8 10 1026.4 - 0.0
23/09:00am 17.4 15.7 13.7 79 2.1 WSW 15 19 8 10 1025.9 1025.7 0.0
23/08:30am 16.4 14.7 13.5 83 1.6 WSW 15 19 8 10 1025.6 - 0.0
23/08:00am 15.7 13.2 13.5 87 1.2 WSW 19 22 10 12 1025.1 - 0.0
23/07:30am 14.9 12.6 12.9 88 1.1 W 17 20 9 11 1024.7 - 0.0
23/07:00am 14.7 11.8 12.9 89 1.0 W 20 26 11 14 1024.2 - 0.0
23/06:30am 14.6 11.3 12.8 89 1.0 W 22 26 12 14 1023.9 - 0.0
23/06:00am 14.7 11.4 12.9 89 1.0 W 22 28 12 15 1023.6 1023.3 0.0
23/05:30am 14.7 11.0 12.7 88 1.1 W 24 28 13 15 1023.5 - 0.0
23/05:00am 14.8 11.1 12.8 88 1.1 W 24 28 13 15 1023.4 - 0.0
23/04:30am 14.8 10.7 12.7 87 1.2 W 26 30 14 16 1023.3 - 0.0
23/04:00am 14.9 10.7 12.4 85 1.4 W 26 32 14 17 1023.4 - 0.0
23/03:30am 15.3 11.3 13.0 86 1.3 W 26 28 14 15 1023.5 - 0.0
23/03:00am 15.0 11.0 12.9 87 1.2 W 26 35 14 19 1023.2 1022.9 0.0
23/02:30am 15.0 11.0 12.9 87 1.2 W 26 30 14 16 1023.2 - 0.0
23/02:00am 15.2 11.1 12.7 85 1.4 W 26 32 14 17 1023.3 - 0.0
23/01:30am 15.4 11.8 12.9 85 1.4 W 24 28 13 15 1023.6 - 0.0
23/01:00am 15.4 11.0 12.9 85 1.4 W 28 33 15 18 1023.5 - 0.0
23/12:30am 15.6 11.7 13.3 86 1.3 W 26 30 14 16 1024.0 - 0.0
23/12:00am 15.5 11.4 12.6 83 1.6 W 26 30 14 16 1024.0 1023.7 0.0
 
Date/Time
EDT
Temp
°C
App
Temp
°C
Dew
Point
°C
Rel
Hum
%
Delta-T
°C
Wind Press
QNH
hPa
Press
MSL
hPa
Rain since
9am
mm
Dir  Spd
km/h
Gust
km/h
Spd
kts
Gust
kts
22/11:30pm 15.5 11.4 12.6 83 1.6 WSW 26 32 14 17 1024.1 - 0.0
22/11:00pm 15.7 11.3 13.0 84 1.5 WSW 28 32 15 17 1024.1 - 0.0
22/10:30pm 15.6 11.6 13.1 85 1.4 WSW 26 32 14 17 1024.2 - 0.0
22/10:00pm 15.5 10.2 12.4 82 1.7 WSW 32 37 17 20 1024.2 - 0.0
22/09:30pm 15.4 10.0 12.7 84 1.5 WSW 33 39 18 21 1023.8 - 0.0
22/09:00pm 15.0 9.0 12.1 83 1.6 W 35 41 19 22 1023.5 1023.2 0.0
22/08:30pm 15.1 9.4 11.9 81 1.7 W 33 39 18 21 1023.3 - 0.0
22/08:00pm 15.3 8.8 11.7 79 2.0 WSW 37 46 20 25 1023.3 - 0.0
22/07:30pm 15.6 9.1 11.8 78 2.1 W 37 48 20 26 1023.0 - 0.0
22/07:00pm 16.3 9.8 11.7 74 2.5 WSW 37 44 20 24 1022.8 - 0.0
22/06:30pm 17.3 11.1 12.6 74 2.6 WSW 37 46 20 25 1022.9 - 0.0
22/06:00pm 16.5 9.9 11.4 72 2.8 WSW 37 43 20 23 1022.9 1022.6 0.0
22/05:30pm 17.2 10.7 11.7 70 3.0 WSW 37 44 20 24 1022.9 - 0.0
22/05:00pm 17.6 11.5 11.6 68 3.3 WSW 35 43 19 23 1022.8 - 0.0
22/04:30pm 18.0 11.9 11.6 66 3.5 WSW 35 43 19 23 1022.8 - 0.0
22/04:00pm 18.8 13.3 11.9 64 3.8 WSW 32 37 17 20 1023.1 - 0.0
22/03:30pm 18.2 12.7 11.7 66 3.6 WSW 32 37 17 20 1023.3 - 0.0
22/03:00pm 18.0 12.5 11.8 67 3.4 WSW 32 39 17 21 1023.5 1023.2 0.0
22/02:30pm 18.4 13.4 12.2 67 3.5 WSW 30 37 16 20 1023.7 - 0.0
22/02:00pm 18.0 13.3 12.0 68 3.3 WSW 28 33 15 18 1023.8 - 0.0
22/01:30pm 18.0 12.3 11.3 65 3.7 WSW 32 39 17 21 1023.9 - 0.0
22/01:00pm 18.0 13.2 11.6 66 3.5 WSW 28 33 15 18 1023.8 - 0.0
22/12:30pm 18.6 14.1 11.4 63 4.0 WSW 26 32 14 17 1024.0 - 0.0
22/12:00pm 18.0 13.7 12.2 69 3.2 WSW 26 30 14 16 1024.2 1023.9 0.0
22/11:30am 17.2 12.7 11.5 69 3.1 WSW 26 32 14 17 1024.2 - 0.0
22/11:00am 16.9 12.3 11.0 68 3.2 WSW 26 33 14 18 1024.2 - 0.0
22/10:30am 16.9 11.6 11.2 69 3.1 WSW 30 35 16 19 1024.0 - 0.0
22/10:00am 16.4 12.6 11.1 71 2.9 WSW 22 28 12 15 1023.8 - 0.0
22/09:30am 16.4 12.6 11.1 71 2.9 WSW 22 28 12 15 1023.7 - 0.0
22/09:00am 15.8 10.7 10.6 71 2.8 W 28 33 15 18 1023.7 1023.4 0.0
22/08:30am 15.7 12.4 10.9 73 2.6 W 19 26 10 14 1023.4 - 0.0
22/08:00am 15.3 11.7 10.5 73 2.5 WSW 20 24 11 13 1023.0 - 0.0
22/07:30am 15.1 10.7 10.5 74 2.4 W 24 30 13 16 1022.8 - 0.0
22/07:00am 15.1 10.1 10.9 76 2.2 SW 28 32 15 17 1022.5 - 0.0
22/06:30am 15.0 11.0 10.6 75 2.3 SW 22 30 12 16 1022.4 - 0.0
22/06:00am 15.0 10.4 11.0 77 2.1 SW 26 32 14 17 1022.3 1022.0 0.0
22/05:30am 15.1 10.6 11.3 78 2.0 SW 26 33 14 18 1022.0 - 0.0
22/05:00am 15.0 10.1 11.2 78 2.0 WSW 28 35 15 19 1022.0 - 0.0
22/04:30am 14.9 10.6 10.7 76 2.2 WSW 24 30 13 16 1021.9 - 0.0
22/04:00am 14.9 10.3 11.1 78 2.0 WSW 26 32 14 17 1021.7 - 0.0
22/03:30am 14.8 9.5 11.4 80 1.8 SW 30 37 16 20 1021.6 - 0.0
22/03:00am 14.7 9.5 11.5 81 1.7 WSW 30 35 16 19 1021.6 1021.3 0.0
22/02:30am 15.0 9.9 11.8 81 1.7 SW 30 39 16 21 1021.6 - 0.0
22/02:00am 15.1 9.4 11.9 81 1.7 WSW 33 41 18 22 1021.6 - 0.0
22/01:30am 15.0 9.2 11.6 80 1.8 WSW 33 39 18 21 1021.9 - 0.0
22/01:00am 15.0 9.2 11.6 80 1.8 WSW 33 44 18 24 1022.0 - 0.0
22/12:30am 15.1 8.5 11.5 79 1.9 WSW 37 46 20 25 1021.6 - 0.0
22/12:00am 15.1 8.2 11.7 80 1.8 WSW 39 46 21 25 1021.6 1021.3 0.0
 
Date/Time
EDT
Temp
°C
App
Temp
°C
Dew
Point
°C
Rel
Hum
%
Delta-T
°C
Wind Press
QNH
hPa
Press
MSL
hPa
Rain since
9am
mm
Dir  Spd
km/h
Gust
km/h
Spd
kts
Gust
kts
21/11:30pm 15.1 8.9 11.3 78 2.0 WSW 35 41 19 22 1021.8 - 0.0
21/11:00pm 15.1 8.2 11.5 79 1.9 WSW 39 46 21 25 1021.7 - 0.0
21/10:30pm 15.1 8.7 12.1 82 1.6 WSW 37 43 20 23 1021.7 - 0.0
21/10:00pm 15.2 8.0 12.0 81 1.7 WSW 41 46 22 25 1021.4 - 0.0
21/09:30pm 15.4 8.6 12.0 80 1.9 WSW 39 48 21 26 1021.5 - 0.0
21/09:00pm 15.4 8.2 11.8 79 2.0 WSW 41 48 22 26 1021.1 1020.8 0.0
21/08:30pm 15.3 7.3 11.1 76 2.3 WSW 44 50 24 27 1020.7 - 0.0
21/08:00pm 15.5 7.4 10.7 73 2.6 WSW 44 52 24 28 1020.5 - 0.0
21/07:30pm 16.0 7.9 10.7 71 2.8 WSW 44 54 24 29 1020.4 - 0.0
21/07:00pm 16.3 8.1 10.4 68 3.1 WSW 44 52 24 28 1020.1 - 0.0
21/06:30pm 17.0 8.2 10.8 67 3.3 WSW 48 56 26 30 1019.9 - 0.0
21/06:00pm 17.3 8.7 11.6 69 3.1 WSW 48 54 26 29 1019.6 1019.4 0.0
21/05:30pm 17.5 8.2 10.4 63 3.8 WSW 50 57 27 31 1019.4 - 0.0
21/05:00pm 17.1 7.7 11.4 69 3.1 WSW 52 59 28 32 1019.3 - 0.0
21/04:30pm 17.4 8.6 12.1 71 2.9 W 50 59 27 32 1019.2 - 0.0
21/04:00pm 17.5 7.7 11.3 67 3.4 WSW 54 61 29 33 1019.1 - 0.0
21/03:30pm 18.1 9.3 12.3 69 3.2 WSW 50 57 27 31 1019.3 - 0.0
21/03:00pm 18.8 9.3 11.1 61 4.2 W 52 59 28 32 1019.3 1019.1 0.0
21/02:30pm 18.9 9.4 9.7 55 4.9 WSW 50 57 27 31 1019.5 - 0.0
21/02:00pm 19.3 11.2 10.6 57 4.7 WSW 44 50 24 27 1019.7 - 0.0
21/01:30pm 18.8 12.0 11.9 64 3.8 W 39 46 21 25 1019.6 - 0.0
21/01:00pm 15.6 6.4 11.0 74 2.5 W 50 57 27 31 1019.6 - 0.0
21/12:30pm 17.2 9.7 10.8 66 3.4 WSW 41 48 22 26 1019.5 - 0.0
21/12:00pm 16.3 8.0 10.2 67 3.2 W 44 52 24 28 1019.4 1019.2 0.0
21/11:30am 16.8 8.7 10.0 64 3.6 W 43 50 23 27 1019.3 - 0.0
21/11:00am 17.0 8.9 10.1 64 3.7 WSW 43 48 23 26 1019.1 - 0.0
21/10:30am 16.2 7.2 8.9 62 3.8 WSW 46 56 25 30 1018.8 - 0.0
21/10:00am 16.8 8.2 8.8 59 4.1 WSW 44 52 24 28 1018.7 - 0.0
21/09:30am 16.3 7.9 8.8 61 3.9 W 43 48 23 26 1018.4 - 0.0
21/09:00am 15.7 6.2 9.8 68 3.1 W 50 57 27 31 1017.9 1017.7 2.2
21/08:30am 15.5 6.2 10.5 72 2.7 WSW 50 57 27 31 1017.5 - 2.2
21/08:00am 14.8 6.0 10.8 77 2.1 WSW 48 59 26 32 1017.3 - 2.2
21/07:30am 15.1 6.5 10.3 73 2.5 W 46 56 25 30 1016.9 - 2.2
21/07:00am 14.9 5.8 9.9 72 2.6 W 48 56 26 30 1016.3 - 2.2
21/06:30am 14.9 5.9 10.3 74 2.4 W 48 57 26 31 1015.9 - 2.2
21/06:00am 14.7 6.3 10.9 78 2.0 W 46 54 25 29 1015.6 1015.3 2.2
21/05:30am 14.9 5.8 11.1 78 2.0 W 50 57 27 31 1015.4 - 2.2
21/05:00am 14.8 6.8 10.4 75 2.3 W 43 52 23 28 1015.2 - 2.2
21/04:30am 14.8 6.7 10.2 74 2.4 W 43 50 23 27 1015.3 - 2.2
21/04:00am 14.8 7.9 10.2 74 2.4 W 37 48 20 26 1015.2 - 2.2
21/03:30am 14.6 7.6 9.8 73 2.5 W 37 44 20 24 1015.2 - 2.2
21/03:00am 14.3 5.9 9.5 73 2.5 W 44 48 24 26 1015.2 1014.9 2.2
21/02:30am 14.2 6.0 9.8 75 2.3 WSW 43 50 23 27 1015.3 - 2.2
21/02:00am 14.3 6.7 10.5 78 2.0 WSW 41 48 22 26 1015.5 - 2.2
21/01:30am 14.3 7.4 11.6 84 1.5 WSW 39 48 21 26 1015.5 - 2.2
21/01:00am 14.4 8.5 12.4 88 1.1 SW 35 41 19 22 1015.5 - 2.2
21/12:30am 14.6 7.3 13.3 92 0.7 WSW 44 52 24 28 1015.3 - 2.2
21/12:00am 14.3 6.9 14.1 99 0.1 WSW 46 54 25 29 1015.2 1014.9 2.2
 
Date/Time
EDT
Temp
°C
App
Temp
°C
Dew
Point
°C
Rel
Hum
%
Delta-T
°C
Wind Press
QNH
hPa
Press
MSL
hPa
Rain since
9am
mm
Dir  Spd
km/h
Gust
km/h
Spd
kts
Gust
kts
20/11:30pm 14.2 8.4 14.0 99 0.1 WSW 37 46 20 25 1015.2 - 2.2
20/11:00pm 14.5 9.2 14.3 99 0.1 W 35 48 19 26 1015.1 - 2.0

Other formats

Comma delimited format used in spreadsheet applications
http://www.bom.gov.au/fwo/IDV60801/IDV60801.94949.axf

JavaScript Object Notation format (JSON) in row-major order
http://www.bom.gov.au/fwo/IDV60801/IDV60801.94949.json

Data quality

Most of these data are generated automatically and are frequently updated. Quality checks on data are not normally performed. It is possible for incorrect values to appear. Refer to information at About Latest Weather Observations and please check the disclaimer before using these data.